Time;durP1;ratioP1;P1;durP2;ratioP2;P2;SDS_P1;SDS_P2;PMS_P1;PMS_P2;Temp;Humidity;BMP_temperature;BMP_pressure;BME280_temperature;BME280_humidity;BME280_pressure;Samples;Min_cycle;Max_cycle;Signal;HPM_P1;HPM_P2
2023/03/12 00:01:39;;;;;;;7.25;5.70;;;;;;;5.30;51.60;101054.50;5070320;28;20773;-66
2023/03/12 00:04:05;;;;;;;9.57;5.63;;;;;;;5.35;51.72;101057.50;5069429;28;20044;-66
2023/03/12 00:06:30;;;;;;;10.68;5.90;;;;;;;5.35;51.43;101052.00;5062396;28;20035;-66
2023/03/12 00:08:57;;;;;;;13.32;5.95;;;;;;;5.32;51.73;101052.41;5055418;28;20028;-66
2023/03/12 00:11:22;;;;;;;9.90;5.97;;;;;;;5.28;51.79;101046.47;5049272;28;20040;-66
2023/03/12 00:13:49;;;;;;;7.57;5.25;;;;;;;5.31;51.84;101036.97;5053399;28;20063;-66
2023/03/12 00:16:15;;;;;;;6.88;5.57;;;;;;;5.31;52.27;101050.72;5051775;28;20041;-66
2023/03/12 00:18:41;;;;;;;11.35;5.72;;;;;;;5.30;51.90;101046.25;5054900;28;20036;-66
2023/03/12 00:21:07;;;;;;;11.55;5.95;;;;;;;5.25;51.45;101035.91;5052392;28;20472;-66
2023/03/12 00:23:33;;;;;;;9.07;5.65;;;;;;;5.29;52.00;101033.56;5061584;28;20042;-66
2023/03/12 00:26:04;;;;;;;9.07;5.93;;;;;;;5.28;51.94;101029.97;5060687;28;20146;-66
2023/03/12 00:28:30;;;;;;;9.52;5.57;;;;;;;5.32;51.87;101017.47;5069030;28;20067;-66
2023/03/12 00:30:57;;;;;;;8.55;5.47;;;;;;;5.30;51.86;101004.97;5069794;28;20051;-67
2023/03/12 00:33:25;;;;;;;12.30;5.95;;;;;;;5.29;52.08;101008.78;5058711;28;20025;-66
2023/03/12 00:35:51;;;;;;;10.02;5.68;;;;;;;5.28;51.51;101016.22;5058442;28;20037;-66
2023/03/12 00:38:17;;;;;;;13.23;7.28;;;;;;;5.28;52.16;101007.13;5049891;28;20094;-66
2023/03/12 00:40:42;;;;;;;10.63;7.00;;;;;;;5.29;51.77;101001.38;5060184;28;20124;-66
2023/03/12 00:43:08;;;;;;;20.63;9.63;;;;;;;5.32;51.82;101003.72;5062925;28;20028;-66
2023/03/12 00:45:33;;;;;;;52.55;22.13;;;;;;;5.26;51.54;101007.31;5064934;28;20041;-66
2023/03/12 00:47:58;;;;;;;21.52;10.88;;;;;;;5.27;51.70;101006.28;5049369;28;20028;-66
2023/03/12 00:50:24;;;;;;;57.85;25.50;;;;;;;5.32;52.16;100998.22;5053963;28;20017;-67
2023/03/12 00:52:50;;;;;;;52.92;23.85;;;;;;;5.29;51.92;100997.78;5070057;28;20454;-66
2023/03/12 00:55:15;;;;;;;27.58;13.43;;;;;;;5.27;51.51;100998.00;5064685;28;20032;-67
2023/03/12 00:57:40;;;;;;;17.65;10.15;;;;;;;5.31;51.38;100995.69;5065302;28;20051;-66
2023/03/12 01:00:10;;;;;;;28.05;14.38;;;;;;;5.29;51.99;100992.28;5069177;28;20025;-66
2023/03/12 01:02:37;;;;;;;17.17;11.73;;;;;;;5.31;51.71;100987.41;5055768;28;20044;-66
2023/03/12 01:05:05;;;;;;;16.65;10.15;;;;;;;5.32;51.72;100991.84;5051039;28;20111;-66
2023/03/12 01:07:30;;;;;;;13.52;8.20;;;;;;;5.32;51.79;100989.09;5049774;28;20041;-66
2023/03/12 01:09:55;;;;;;;11.40;7.43;;;;;;;5.27;51.15;100988.91;5048859;28;20036;-66
2023/03/12 01:12:21;;;;;;;16.60;12.40;;;;;;;5.32;51.83;100969.84;5050444;28;20424;-66
2023/03/12 01:14:46;;;;;;;14.40;10.63;;;;;;;5.31;51.79;100965.41;5057740;28;20128;-66
2023/03/12 01:17:11;;;;;;;19.30;10.43;;;;;;;5.32;51.83;100969.84;5051021;28;20032;-67
2023/03/12 01:19:36;;;;;;;8.73;6.63;;;;;;;5.34;51.73;100973.22;5056195;28;20032;-67
2023/03/12 01:22:02;;;;;;;14.55;7.45;;;;;;;5.32;52.38;100956.91;5067766;28;20464;-66
2023/03/12 01:24:27;;;;;;;9.00;5.68;;;;;;;5.32;51.59;100958.84;5066056;28;20100;-66
2023/03/12 01:26:52;;;;;;;10.38;5.78;;;;;;;5.31;51.40;100963.50;5066822;28;20033;-66
2023/03/12 01:29:18;;;;;;;8.85;5.97;;;;;;;5.31;51.41;100973.66;5069529;28;20070;-66
2023/03/12 01:31:43;;;;;;;10.18;5.68;;;;;;;5.31;50.92;100973.66;5070684;28;20043;-67
2023/03/12 01:34:10;;;;;;;10.43;5.93;;;;;;;5.29;51.19;100976.59;5062372;28;20470;-67
2023/03/12 01:36:36;;;;;;;10.75;5.78;;;;;;;5.30;51.26;100970.03;5071578;28;20372;-66
2023/03/12 01:39:01;;;;;;;12.88;6.65;;;;;;;5.33;51.74;100960.50;5073059;28;20050;-67
2023/03/12 01:41:31;;;;;;;9.70;5.85;;;;;;;5.33;51.45;100955.00;5067632;28;20061;-66
2023/03/12 01:43:57;;;;;;;11.27;6.07;;;;;;;5.36;51.44;100949.06;5053400;28;20059;-66
2023/03/12 01:46:29;;;;;;;11.93;6.60;;;;;;;5.34;52.29;100943.78;5067715;28;20025;-67
2023/03/12 01:48:57;;;;;;;8.18;5.60;;;;;;;5.33;51.51;100939.34;5072202;28;20111;-66
2023/03/12 01:51:27;;;;;;;8.73;5.45;;;;;;;5.33;51.47;100933.00;5070812;28;20032;-66
2023/03/12 01:53:56;;;;;;;12.70;6.20;;;;;;;5.31;51.29;100937.88;5072684;28;20932;-66
2023/03/12 01:56:26;;;;;;;9.77;6.60;;;;;;;5.32;52.16;100928.56;5071307;28;20043;-67
2023/03/12 01:58:55;;;;;;;10.40;5.35;;;;;;;5.32;51.89;100934.91;5072261;28;20335;-67
2023/03/12 02:01:21;;;;;;;11.73;5.32;;;;;;;5.32;51.50;100931.31;5061761;28;20036;-66
2023/03/12 02:03:50;;;;;;;11.45;5.72;;;;;;;5.30;51.42;100928.75;5066152;28;20032;-67
2023/03/12 02:06:19;;;;;;;8.25;5.70;;;;;;;5.30;51.60;100926.00;5072195;28;20154;-66
2023/03/12 02:08:46;;;;;;;9.75;5.18;;;;;;;5.33;51.36;100921.97;5068686;28;20360;-66
2023/03/12 02:11:12;;;;;;;8.43;5.30;;;;;;;5.31;51.67;100921.38;5070660;28;20190;-65
2023/03/12 02:13:38;;;;;;;11.18;5.97;;;;;;;5.28;51.28;100919.03;5059387;28;20112;-65
2023/03/12 02:16:03;;;;;;;14.25;6.30;;;;;;;5.25;51.53;100911.22;5052533;28;20040;-66
2023/03/12 02:18:29;;;;;;;10.38;5.90;;;;;;;5.25;51.70;100906.56;5054593;28;20376;-66
2023/03/12 02:20:58;;;;;;;8.25;5.88;;;;;;;5.25;51.93;100906.56;5072067;28;20178;-66
2023/03/12 02:23:36;;;;;;;10.95;6.00;;;;;;;5.30;52.36;100897.63;5061624;28;20067;-66
2023/03/12 02:26:04;;;;;;;10.63;6.72;;;;;;;5.26;52.19;100901.88;5067651;28;20075;-67
2023/03/12 02:28:33;;;;;;;10.93;6.38;;;;;;;5.25;51.94;100895.53;5067552;28;20500;-67
2023/03/12 02:31:01;;;;;;;11.13;6.50;;;;;;;5.22;51.91;100897.88;5071011;28;20071;-67
2023/03/12 02:33:27;;;;;;;8.38;5.90;;;;;;;5.20;52.48;100897.28;5065390;28;20154;-67
2023/03/12 02:35:53;;;;;;;12.02;6.90;;;;;;;5.22;52.58;100893.22;5067726;28;20120;-67
2023/03/12 02:38:36;;;;;;;9.90;5.88;;;;;;;5.27;52.99;100892.59;5069716;28;20103;-66
2023/03/12 02:41:10;;;;;;;12.90;5.82;;;;;;;5.28;52.72;100894.28;5068782;28;20036;-66
2023/03/12 02:43:35;;;;;;;13.75;6.13;;;;;;;5.25;52.48;100894.69;5068925;28;20094;-66
2023/03/12 02:46:01;;;;;;;11.65;6.88;;;;;;;5.21;52.96;100901.72;5068260;28;20157;-66
2023/03/12 02:48:26;;;;;;;8.20;6.32;;;;;;;5.21;53.66;100908.06;5069716;28;20032;-66
2023/03/12 02:50:51;;;;;;;10.35;6.38;;;;;;;5.21;53.01;100898.94;5060394;28;20039;-66
2023/03/12 02:53:17;;;;;;;12.05;6.65;;;;;;;5.23;53.12;100902.34;5069836;28;20032;-66
2023/03/12 02:55:42;;;;;;;12.15;6.80;;;;;;;5.17;53.66;100896.63;5057579;28;20033;-66
2023/03/12 02:58:07;;;;;;;11.88;6.53;;;;;;;5.16;53.93;100900.44;5058062;28;20425;-66
2023/03/12 03:00:33;;;;;;;12.30;6.75;;;;;;;5.17;54.41;100895.78;5065917;28;20024;-66
2023/03/12 03:02:59;;;;;;;11.80;6.50;;;;;;;5.21;54.44;100890.69;5062696;28;20032;-66
2023/03/12 03:05:24;;;;;;;12.02;6.55;;;;;;;5.17;55.06;100890.28;5051532;28;20030;-66
2023/03/12 03:07:50;;;;;;;13.07;7.05;;;;;;;5.14;55.77;100880.53;5061660;28;20036;-67
2023/03/12 03:10:16;;;;;;;11.43;6.97;;;;;;;5.13;56.66;100889.03;5069659;28;20059;-67
2023/03/12 03:12:42;;;;;;;14.52;7.60;;;;;;;5.18;56.32;100879.03;5058815;28;20392;-66
2023/03/12 03:15:08;;;;;;;16.80;6.53;;;;;;;5.19;56.30;100888.19;5069642;28;20044;-67
2023/03/12 03:17:33;;;;;;;12.45;6.65;;;;;;;5.15;56.92;100887.75;5061252;28;20036;-66
2023/03/12 03:19:58;;;;;;;11.80;6.80;;;;;;;5.14;57.37;100887.97;5069368;28;20438;-66
2023/03/12 03:22:23;;;;;;;10.48;6.30;;;;;;;5.15;57.44;100885.00;5070914;28;20061;-66
2023/03/12 03:24:49;;;;;;;11.10;5.75;;;;;;;5.10;57.66;100879.28;5066934;28;20400;-66
2023/03/12 03:27:17;;;;;;;9.57;6.18;;;;;;;5.04;58.58;100885.69;5052133;28;20166;-67
2023/03/12 03:29:45;;;;;;;10.95;5.97;;;;;;;5.04;58.48;100882.91;5050071;28;20032;-66
2023/03/12 03:32:11;;;;;;;10.85;6.03;;;;;;;5.04;58.52;100880.16;5051032;28;20237;-66
2023/03/12 03:34:37;;;;;;;11.95;6.57;;;;;;;5.01;58.40;100883.34;5059987;28;20490;-67
2023/03/12 03:37:04;;;;;;;13.77;6.10;;;;;;;4.99;58.31;100877.22;5069370;28;20028;-66
2023/03/12 03:39:29;;;;;;;8.70;5.35;;;;;;;5.02;59.02;100864.94;5070579;28;20468;-66
2023/03/12 03:41:57;;;;;;;9.25;6.00;;;;;;;5.03;59.18;100862.00;5070526;28;20063;-67
2023/03/12 03:44:22;;;;;;;9.57;5.78;;;;;;;5.00;59.49;100856.91;5055495;28;20045;-66
2023/03/12 03:46:48;;;;;;;10.82;5.80;;;;;;;4.98;59.66;100858.19;5050578;28;20021;-66
2023/03/12 03:49:14;;;;;;;11.90;6.05;;;;;;;4.96;60.73;100847.41;5056522;28;20051;-67
2023/03/12 03:51:41;;;;;;;12.50;6.35;;;;;;;5.02;60.00;100846.53;5063925;28;20467;-66
2023/03/12 03:54:07;;;;;;;10.48;5.65;;;;;;;5.05;59.83;100826.00;5069850;28;20382;-67
2023/03/12 03:56:33;;;;;;;13.27;6.07;;;;;;;5.04;60.21;100824.31;5069076;28;20101;-66
2023/03/12 03:58:58;;;;;;;10.20;5.72;;;;;;;5.03;60.64;100823.47;5055530;28;20035;-66
2023/03/12 04:01:23;;;;;;;10.43;5.95;;;;;;;5.06;60.33;100823.00;5056087;28;20387;-66
2023/03/12 04:03:48;;;;;;;9.65;6.57;;;;;;;5.04;60.69;100822.41;5050139;28;20066;-67
2023/03/12 04:06:14;;;;;;;10.65;6.20;;;;;;;5.01;60.39;100820.06;5050502;28;20021;-66
2023/03/12 04:08:39;;;;;;;10.35;6.45;;;;;;;5.04;60.29;100830.66;5050441;28;20437;-66
2023/03/12 04:11:10;;;;;;;13.70;5.97;;;;;;;5.04;60.24;100825.16;5049489;28;20563;-66
2023/03/12 04:13:36;;;;;;;8.70;6.20;;;;;;;5.03;60.10;100817.09;5050395;28;20037;-66
2023/03/12 04:16:01;;;;;;;10.35;6.35;;;;;;;4.99;60.63;100802.97;5063714;28;20028;-66
2023/03/12 04:18:27;;;;;;;12.35;6.25;;;;;;;5.01;60.40;100794.47;5064236;28;20112;-66
2023/03/12 04:20:52;;;;;;;8.65;5.72;;;;;;;5.00;60.59;100799.16;5069278;28;20077;-66
2023/03/12 04:23:17;;;;;;;9.43;6.03;;;;;;;4.98;60.50;100804.00;5069318;28;20035;-66
2023/03/12 04:25:43;;;;;;;8.88;5.70;;;;;;;4.98;60.09;100787.50;5049976;28;20028;-66
2023/03/12 04:28:08;;;;;;;14.18;5.97;;;;;;;5.01;60.05;100786.22;5062494;28;20067;-66
2023/03/12 04:30:33;;;;;;;11.30;6.25;;;;;;;5.06;59.76;100781.75;5070401;28;20033;-66
2023/03/12 04:32:59;;;;;;;14.38;6.10;;;;;;;5.02;59.52;100772.25;5066792;28;20039;-66
2023/03/12 04:35:24;;;;;;;8.88;5.75;;;;;;;5.08;59.67;100776.88;5064971;28;20475;-67
2023/03/12 04:37:52;;;;;;;9.10;5.88;;;;;;;5.05;59.54;100758.06;5066416;28;20024;-66
2023/03/12 04:40:18;;;;;;;12.40;5.75;;;;;;;5.06;59.64;100765.25;5069181;28;20133;-66
2023/03/12 04:42:44;;;;;;;10.52;6.32;;;;;;;5.06;60.44;100762.50;5070123;28;20520;-66
2023/03/12 04:45:10;;;;;;;11.60;6.18;;;;;;;5.07;59.99;100766.94;5055807;28;20063;-66
2023/03/12 04:47:36;;;;;;;11.48;6.35;;;;;;;5.07;59.76;100772.44;5053646;28;20065;-66
2023/03/12 04:50:01;;;;;;;10.23;5.82;;;;;;;5.02;60.42;100772.25;5052449;28;20136;-66
2023/03/12 04:52:27;;;;;;;14.48;5.93;;;;;;;5.01;60.12;100764.22;5069175;28;20043;-66
2023/03/12 04:54:53;;;;;;;10.02;5.55;;;;;;;5.00;60.10;100768.88;5073334;28;20043;-66
2023/03/12 04:57:19;;;;;;;10.20;5.93;;;;;;;4.99;60.17;100760.84;5074461;28;20543;-66
2023/03/12 04:59:44;;;;;;;9.43;5.72;;;;;;;4.96;60.39;100753.88;5072763;28;20035;-66
2023/03/12 05:02:10;;;;;;;10.27;5.60;;;;;;;4.99;60.81;100758.94;5057225;28;20040;-66
2023/03/12 05:04:35;;;;;;;8.07;5.35;;;;;;;4.97;60.66;100750.06;5054032;28;20025;-66
2023/03/12 05:07:01;;;;;;;8.73;5.80;;;;;;;5.01;60.94;100747.72;5056159;28;20025;-67
2023/03/12 05:09:26;;;;;;;14.85;6.05;;;;;;;4.99;61.03;100738.81;5068252;28;20032;-66
2023/03/12 05:11:51;;;;;;;11.38;6.03;;;;;;;4.98;61.33;100726.16;5058847;28;20049;-66
2023/03/12 05:14:20;;;;;;;9.98;5.63;;;;;;;5.00;61.04;100729.53;5068007;28;20036;-66
2023/03/12 05:16:45;;;;;;;11.63;5.70;;;;;;;4.99;61.73;100722.31;5073848;28;20550;-66
2023/03/12 05:19:11;;;;;;;9.48;5.75;;;;;;;4.98;61.92;100721.47;5063780;28;20044;-66
2023/03/12 05:21:38;;;;;;;9.57;5.90;;;;;;;4.96;62.33;100722.78;5068945;28;20032;-66
2023/03/12 05:24:12;;;;;;;10.27;5.75;;;;;;;4.92;63.54;100723.22;5071322;28;20036;-66
2023/03/12 05:26:41;;;;;;;10.55;5.60;;;;;;;4.88;64.40;100729.38;5067800;28;20083;-66
2023/03/12 05:29:09;;;;;;;13.18;5.45;;;;;;;4.85;65.00;100718.81;5062115;28;20029;-66
2023/03/12 05:31:35;;;;;;;6.63;5.30;;;;;;;4.84;64.96;100717.97;5067606;28;20051;-66
2023/03/12 05:34:02;;;;;;;9.25;5.82;;;;;;;4.80;65.65;100719.47;5072550;28;20467;-65
2023/03/12 05:36:27;;;;;;;15.70;6.35;;;;;;;4.77;65.82;100710.81;5072476;28;20103;-66
2023/03/12 05:38:53;;;;;;;9.75;5.55;;;;;;;4.75;66.26;100707.41;5073182;28;20160;-66
2023/03/12 05:41:27;;;;;;;10.50;5.97;;;;;;;4.76;66.21;100709.13;5072147;28;20055;-66
2023/03/12 05:43:55;;;;;;;9.65;6.05;;;;;;;4.73;66.62;100704.91;5067998;28;20474;-66
2023/03/12 05:46:21;;;;;;;12.73;6.00;;;;;;;4.74;66.97;100703.00;5056555;28;20028;-66
2023/03/12 05:48:47;;;;;;;8.52;5.82;;;;;;;4.74;66.85;100700.25;5072809;28;20107;-66
2023/03/12 05:51:12;;;;;;;9.70;5.57;;;;;;;4.78;66.92;100702.34;5069066;28;20044;-67
2023/03/12 05:53:37;;;;;;;10.15;5.65;;;;;;;4.80;67.23;100696.63;5070716;28;20060;-66
2023/03/12 05:56:09;;;;;;;11.30;5.65;;;;;;;4.81;67.41;100709.31;5072670;28;20028;-66
2023/03/12 05:58:36;;;;;;;8.98;5.55;;;;;;;4.84;67.76;100703.38;5069718;28;20029;-67
2023/03/12 06:01:03;;;;;;;9.90;5.68;;;;;;;4.87;67.54;100711.16;5058327;28;20029;-66
2023/03/12 06:03:28;;;;;;;10.02;5.85;;;;;;;4.85;67.56;100705.06;5066418;28;20043;-66
2023/03/12 06:05:55;;;;;;;12.60;5.72;;;;;;;4.85;67.75;100699.56;5058129;28;20025;-66
2023/03/12 06:08:22;;;;;;;9.93;5.35;;;;;;;4.81;68.25;100712.06;5056517;28;20371;-66
2023/03/12 06:10:50;;;;;;;14.25;5.93;;;;;;;4.78;68.78;100712.50;5071665;28;20044;-66
2023/03/12 06:13:16;;;;;;;14.90;6.00;;;;;;;4.75;68.85;100713.75;5064520;28;20382;-66
2023/03/12 06:15:41;;;;;;;11.23;5.72;;;;;;;4.75;69.00;100713.75;5055297;28;20032;-66
2023/03/12 06:18:06;;;;;;;14.15;5.90;;;;;;;4.75;69.11;100710.16;5052060;28;20037;-66
2023/03/12 06:20:32;;;;;;;9.75;5.85;;;;;;;4.77;69.15;100716.31;5052681;28;20029;-66
2023/03/12 06:22:57;;;;;;;7.30;5.72;;;;;;;4.80;69.38;100732.38;5060018;28;20024;-66
2023/03/12 06:25:22;;;;;;;6.80;5.32;;;;;;;4.83;69.54;100731.91;5066826;28;20207;-67
2023/03/12 06:27:48;;;;;;;11.80;5.95;;;;;;;4.83;69.96;100723.66;5072108;28;20020;-67
2023/03/12 06:30:14;;;;;;;10.13;6.00;;;;;;;4.85;69.94;100721.56;5072273;28;20028;-67
2023/03/12 06:32:39;;;;;;;9.32;5.25;;;;;;;4.84;70.08;100717.13;5063371;28;20104;-67
2023/03/12 06:35:05;;;;;;;9.70;5.40;;;;;;;4.87;70.18;100711.16;5072220;28;20563;-67
2023/03/12 06:37:30;;;;;;;11.18;6.03;;;;;;;4.90;70.25;100713.50;5070453;28;20107;-67
2023/03/12 06:39:56;;;;;;;11.68;6.22;;;;;;;4.90;70.71;100708.00;5052875;28;20033;-67
2023/03/12 06:42:21;;;;;;;9.52;6.43;;;;;;;4.90;70.98;100695.06;5067894;28;20032;-67
2023/03/12 06:44:47;;;;;;;11.85;6.78;;;;;;;4.89;71.40;100698.06;5071909;28;20032;-67
2023/03/12 06:47:13;;;;;;;10.23;6.47;;;;;;;4.87;71.68;100687.28;5071428;28;20039;-67
2023/03/12 06:49:38;;;;;;;11.00;7.25;;;;;;;4.86;72.47;100693.81;5067586;28;20028;-67
2023/03/12 06:52:04;;;;;;;9.63;6.60;;;;;;;4.83;72.56;100680.50;5070128;28;20033;-67
2023/03/12 06:54:29;;;;;;;8.63;6.25;;;;;;;4.85;73.15;100680.31;5068771;28;20028;-67
2023/03/12 06:56:58;;;;;;;10.68;7.32;;;;;;;4.79;73.62;100670.19;5059382;28;20056;-67
2023/03/12 06:59:24;;;;;;;8.07;6.40;;;;;;;4.85;73.54;100672.06;5064748;28;20585;-67
2023/03/12 07:01:49;;;;;;;11.30;6.75;;;;;;;4.83;73.68;100666.75;5071628;28;20028;-67
2023/03/12 07:04:15;;;;;;;11.43;6.72;;;;;;;4.83;73.50;100669.50;5071458;28;20046;-67
2023/03/12 07:06:41;;;;;;;12.85;7.30;;;;;;;4.87;73.68;100664.41;5070563;28;20024;-66
2023/03/12 07:09:06;;;;;;;9.25;6.50;;;;;;;4.85;73.82;100664.66;5063229;28;20072;-67
2023/03/12 07:11:32;;;;;;;10.45;7.15;;;;;;;4.85;74.11;100655.56;5065718;28;20043;-67
2023/03/12 07:13:57;;;;;;;11.80;7.05;;;;;;;4.87;74.16;100665.28;5070636;28;20414;-66
2023/03/12 07:16:22;;;;;;;11.75;7.03;;;;;;;4.84;74.25;100662.13;5068570;28;20379;-67
2023/03/12 07:18:47;;;;;;;9.70;6.70;;;;;;;4.85;74.42;100658.31;5067167;28;20033;-67
2023/03/12 07:21:15;;;;;;;9.93;6.82;;;;;;;4.85;74.56;100667.41;5060255;28;20400;-68
2023/03/12 07:23:41;;;;;;;9.13;6.88;;;;;;;4.86;74.61;100668.25;5051624;28;20037;-67
2023/03/12 07:26:06;;;;;;;11.63;7.25;;;;;;;4.88;74.83;100677.97;5052517;28;20055;-67
2023/03/12 07:28:31;;;;;;;7.60;6.53;;;;;;;4.88;74.99;100680.72;5050480;28;20029;-67
2023/03/12 07:31:02;;;;;;;9.52;7.18;;;;;;;4.93;74.84;100682.81;5058592;28;20037;-67
2023/03/12 07:33:27;;;;;;;9.85;7.38;;;;;;;4.95;75.07;100674.31;5051578;28;20048;-67
2023/03/12 07:35:52;;;;;;;11.23;7.32;;;;;;;4.95;75.08;100677.91;5069128;28;20036;-67
2023/03/12 07:38:18;;;;;;;9.95;7.95;;;;;;;5.00;75.17;100691.03;5070755;28;20032;-67
2023/03/12 07:40:43;;;;;;;15.48;7.45;;;;;;;4.98;75.74;100682.97;5066009;28;20040;-67
2023/03/12 07:43:11;;;;;;;9.80;7.78;;;;;;;4.98;75.89;100676.63;5058952;28;20071;-67
2023/03/12 07:45:39;;;;;;;10.77;7.40;;;;;;;4.95;76.14;100664.16;5060166;28;20032;-67
2023/03/12 07:48:08;;;;;;;8.90;7.35;;;;;;;5.00;76.18;100680.88;5059727;28;20029;-67
2023/03/12 07:50:33;;;;;;;10.52;8.10;;;;;;;5.01;76.22;100684.44;5060063;28;20118;-66
2023/03/12 07:52:59;;;;;;;8.88;7.78;;;;;;;5.02;76.61;100684.22;5067734;28;20124;-67
2023/03/12 07:55:24;;;;;;;9.00;8.10;;;;;;;5.03;76.34;100677.69;5057229;28;20032;-67
2023/03/12 07:57:49;;;;;;;10.52;7.95;;;;;;;5.04;76.83;100670.25;5068886;28;20363;-67
2023/03/12 08:00:15;;;;;;;12.75;8.43;;;;;;;4.99;77.19;100679.19;5053852;28;20040;-66
2023/03/12 08:02:41;;;;;;;12.10;8.50;;;;;;;5.04;77.07;100673.84;5050122;28;20035;-66
2023/03/12 08:05:07;;;;;;;12.45;8.32;;;;;;;5.07;77.23;100676.16;5060791;28;20033;-64
2023/03/12 08:07:33;;;;;;;8.90;7.47;;;;;;;5.09;77.64;100670.44;5069150;28;20028;-65
2023/03/12 08:10:00;;;;;;;12.32;8.18;;;;;;;5.10;77.79;100670.19;5063387;28;20451;-65
2023/03/12 08:12:25;;;;;;;11.45;7.50;;;;;;;5.15;77.89;100670.41;5062734;28;20032;-66
2023/03/12 08:14:51;;;;;;;10.50;8.35;;;;;;;5.18;78.04;100664.44;5069126;28;20044;-64
2023/03/12 08:17:16;;;;;;;14.05;8.45;;;;;;;5.18;78.78;100674.59;5067173;28;20093;-64
2023/03/12 08:19:41;;;;;;;9.93;8.52;;;;;;;5.20;78.56;100669.72;5068781;28;20866;-65
2023/03/12 08:22:07;;;;;;;9.63;8.10;;;;;;;5.21;78.54;100668.66;5069618;28;20039;-67
2023/03/12 08:24:32;;;;;;;12.00;8.77;;;;;;;5.23;78.83;100679.47;5066572;28;20025;-67
2023/03/12 08:26:58;;;;;;;9.50;7.97;;;;;;;5.28;79.28;100674.13;5052684;28;20025;-66
2023/03/12 08:29:23;;;;;;;10.32;8.05;;;;;;;5.30;79.36;100677.47;5058382;28;20191;-66
2023/03/12 08:31:48;;;;;;;12.60;8.30;;;;;;;5.34;79.54;100676.81;5059499;28;20040;-66
2023/03/12 08:34:14;;;;;;;8.98;8.07;;;;;;;5.38;79.58;100678.06;5062599;28;20482;-65
2023/03/12 08:36:39;;;;;;;10.93;8.07;;;;;;;5.41;79.54;100682.25;5067993;28;20048;-67
2023/03/12 08:39:05;;;;;;;13.60;8.68;;;;;;;5.43;80.00;100690.31;5064749;28;20112;-66
2023/03/12 08:41:30;;;;;;;8.75;7.78;;;;;;;5.47;80.39;100695.16;5060484;28;20114;-66
2023/03/12 08:43:56;;;;;;;8.63;7.68;;;;;;;5.50;80.39;100691.97;5065256;28;20487;-65
2023/03/12 08:46:21;;;;;;;10.80;8.48;;;;;;;5.56;80.42;100690.19;5055676;28;20086;-65
2023/03/12 08:48:46;;;;;;;9.02;8.13;;;;;;;5.59;80.36;100687.84;5059791;28;20036;-63
2023/03/12 08:51:12;;;;;;;11.48;8.55;;;;;;;5.64;81.22;100704.53;5059877;28;20024;-63
2023/03/12 08:53:37;;;;;;;10.40;9.40;;;;;;;5.64;81.41;100701.78;5064214;28;20067;-65
2023/03/12 08:56:04;;;;;;;11.32;9.10;;;;;;;5.69;81.53;100703.00;5059444;28;20108;-66
2023/03/12 08:58:29;;;;;;;11.20;9.50;;;;;;;5.73;81.58;100709.75;5064641;28;20036;-66
2023/03/12 09:00:56;;;;;;;11.68;10.30;;;;;;;5.77;81.70;100711.00;5057708;28;20037;-68
2023/03/12 09:03:22;;;;;;;13.18;11.82;;;;;;;5.77;81.99;100711.81;5061623;28;20043;-67
2023/03/12 09:05:48;;;;;;;16.35;12.35;;;;;;;5.82;81.99;100708.44;5055442;28;20379;-66
2023/03/12 09:08:15;;;;;;;14.60;11.57;;;;;;;5.85;82.14;100714.28;5054877;28;20033;-65
2023/03/12 09:10:47;;;;;;;20.63;14.57;;;;;;;5.89;83.34;100711.94;5054681;28;20057;-66
2023/03/12 09:13:12;;;;;;;20.10;16.20;;;;;;;5.94;82.90;100717.66;5059262;28;20032;-65
2023/03/12 09:15:37;;;;;;;22.02;16.27;;;;;;;6.00;83.60;100707.63;5058165;28;20036;-65
2023/03/12 09:18:03;;;;;;;21.17;16.42;;;;;;;6.02;85.05;100711.88;5056967;28;20028;-65
2023/03/12 09:20:28;;;;;;;22.30;16.30;;;;;;;6.06;85.27;100706.75;5059974;28;20095;-65
2023/03/12 09:22:53;;;;;;;20.73;17.27;;;;;;;6.10;84.41;100706.06;5063019;28;20789;-64
2023/03/12 09:25:20;;;;;;;18.65;16.65;;;;;;;6.16;84.69;100718.06;5054762;28;20033;-65
2023/03/12 09:27:46;;;;;;;20.80;17.50;;;;;;;6.20;85.37;100701.94;5064402;28;20029;-66
2023/03/12 09:30:15;;;;;;;23.15;18.58;;;;;;;6.26;85.67;100709.31;5057985;28;20718;-66
2023/03/12 09:32:40;;;;;;;19.73;16.52;;;;;;;6.31;85.85;100703.94;5057028;28;20029;-65
2023/03/12 09:35:06;;;;;;;24.27;18.00;;;;;;;6.35;85.69;100710.66;5066938;28;20089;-65
2023/03/12 09:37:32;;;;;;;20.17;18.02;;;;;;;6.38;86.10;100710.22;5054074;28;20021;-65
2023/03/12 09:39:58;;;;;;;21.08;18.23;;;;;;;6.43;85.67;100707.63;5050496;28;20487;-65
2023/03/12 09:42:38;;;;;;;21.33;18.45;;;;;;;6.48;86.44;100716.03;5051330;28;20098;-66
2023/03/12 09:45:06;;;;;;;24.23;20.05;;;;;;;6.53;86.51;100710.69;5051514;28;20033;-66
2023/03/12 09:47:42;;;;;;;25.38;20.50;;;;;;;6.58;86.63;100718.25;5064765;28;20048;-66
2023/03/12 09:50:18;;;;;;;25.33;21.23;;;;;;;6.63;87.90;100724.75;5059397;28;20447;-66
2023/03/12 09:52:52;;;;;;;24.67;20.00;;;;;;;6.68;87.19;100728.75;5053182;28;20059;-66
2023/03/12 09:55:20;;;;;;;27.35;21.35;;;;;;;6.71;87.92;100734.66;5056970;28;20053;-66
2023/03/12 09:57:49;;;;;;;25.02;20.65;;;;;;;6.75;88.36;100749.66;5068455;28;20028;-65
2023/03/12 10:00:17;;;;;;;26.80;22.02;;;;;;;6.78;88.06;100745.59;5072171;28;20433;-66
2023/03/12 10:02:57;;;;;;;23.85;20.60;;;;;;;6.81;88.08;100747.91;5067812;28;20090;-65
2023/03/12 10:05:53;;;;;;;30.23;24.08;;;;;;;6.84;88.61;100741.94;5069908;28;20463;-66
2023/03/12 10:08:55;;;;;;;30.83;25.33;;;;;;;6.87;89.38;100744.22;5072248;28;20036;-65
2023/03/12 10:11:36;;;;;;;26.67;23.05;;;;;;;6.91;89.47;100750.94;5069916;28;20048;-65
2023/03/12 10:14:16;;;;;;;30.40;23.20;;;;;;;6.96;89.06;100751.13;5070283;28;20037;-65
2023/03/12 10:16:50;;;;;;;30.65;23.92;;;;;;;6.99;89.60;100747.03;5069311;28;20040;-64
2023/03/12 10:19:45;;;;;;;28.75;23.35;;;;;;;7.04;89.73;100741.69;5068083;28;20479;-65
2023/03/12 10:22:38;;;;;;;30.10;24.45;;;;;;;7.08;89.28;100743.75;5072155;28;20564;-65
2023/03/12 10:25:36;;;;;;;28.17;23.52;;;;;;;7.12;89.34;100738.59;5071456;28;20047;-65
2023/03/12 10:28:13;;;;;;;32.55;23.80;;;;;;;7.14;89.56;100747.47;5071876;28;20033;-66
2023/03/12 10:30:44;;;;;;;34.45;24.98;;;;;;;7.17;89.88;100737.88;5069871;28;20346;-65
2023/03/12 10:33:14;;;;;;;33.03;24.02;;;;;;;7.20;90.21;100740.19;5071318;28;20079;-66
2023/03/12 10:35:41;;;;;;;34.10;24.02;;;;;;;7.23;90.10;100736.94;5071513;28;20021;-61
2023/03/12 10:38:13;;;;;;;40.03;25.92;;;;;;;7.25;90.74;100745.84;5069095;28;20476;-63
2023/03/12 10:40:40;;;;;;;43.35;26.52;;;;;;;7.28;90.96;100753.66;5071206;28;20353;-62
2023/03/12 10:43:06;;;;;;;41.67;25.77;;;;;;;7.30;90.70;100743.22;5069968;28;20033;-62
2023/03/12 10:45:56;;;;;;;40.50;25.98;;;;;;;7.35;91.49;100732.34;5070644;28;20032;-61
2023/03/12 10:48:24;;;;;;;42.88;27.10;;;;;;;7.37;91.21;100735.69;5070708;28;20391;-61
2023/03/12 10:51:02;;;;;;;49.45;26.95;;;;;;;7.45;92.08;100742.78;5067745;28;20050;-69
2023/03/12 10:53:31;;;;;;;43.83;28.15;;;;;;;7.50;91.37;100732.72;5070104;28;20036;-61
2023/03/12 10:56:08;;;;;;;43.13;26.67;;;;;;;7.53;91.73;100728.66;5068603;28;20364;-67
2023/03/12 10:58:42;;;;;;;37.95;24.08;;;;;;;7.56;92.67;100729.03;5050149;28;20546;-67
2023/03/12 11:01:13;;;;;;;44.28;26.55;;;;;;;7.62;92.27;100736.38;5051253;28;20392;-67
2023/03/12 11:03:38;;;;;;;46.05;26.23;;;;;;;7.69;92.36;100739.00;5050348;28;20036;-67
2023/03/12 11:06:06;;;;;;;57.05;26.00;;;;;;;7.75;93.84;100727.03;5056796;28;20037;-66
2023/03/12 11:08:34;;;;;;;44.97;25.33;;;;;;;7.80;93.21;100729.06;5068876;28;20696;-61
2023/03/12 11:11:01;;;;;;;46.40;24.92;;;;;;;7.84;93.14;100742.16;5070696;28;20048;-65
2023/03/12 11:13:29;;;;;;;47.40;25.05;;;;;;;7.88;93.10;100742.53;5069896;28;20468;-66
2023/03/12 11:15:57;;;;;;;51.65;26.02;;;;;;;7.92;92.98;100742.91;5069116;28;20040;-67
2023/03/12 11:19:00;;;;;;;44.50;23.83;;;;;;;7.96;93.01;100749.63;5070009;28;20479;-66
2023/03/12 11:21:27;;;;;;;46.92;22.30;;;;;;;7.98;93.22;100751.09;5054941;28;20073;-66
2023/03/12 11:23:55;;;;;;;46.78;21.23;;;;;;;8.00;92.98;100746.16;5070823;28;20372;-66
2023/03/12 11:26:34;;;;;;;45.70;21.38;;;;;;;8.04;92.70;100755.66;5065723;28;20032;-67